Time;durP1;ratioP1;P1;durP2;ratioP2;P2;SDS_P1;SDS_P2;PMS_P1;PMS_P2;Temp;Humidity;BMP_temperature;BMP_pressure;BME280_temperature;BME280_humidity;BME280_pressure;Samples;Min_cycle;Max_cycle;Signal;HPM_P1;HPM_P2
2023/01/07 00:00:08;;;;;;;2.30;1.30;;;;;;;19.23;56.64;100810.22;5104917;28;20190;-63
2023/01/07 00:02:33;;;;;;;2.03;1.20;;;;;;;19.25;56.75;100813.53;5104378;28;20594;-63
2023/01/07 00:04:58;;;;;;;2.10;1.30;;;;;;;19.20;56.97;100810.91;5111196;28;20212;-63
2023/01/07 00:07:24;;;;;;;2.57;1.40;;;;;;;19.26;56.63;100808.63;5102973;28;20219;-63
2023/01/07 00:09:49;;;;;;;2.17;1.27;;;;;;;19.21;56.82;100806.03;5104409;28;20174;-63
2023/01/07 00:12:15;;;;;;;2.40;1.20;;;;;;;19.24;56.84;100800.41;5103784;28;20238;-63
2023/01/07 00:14:40;;;;;;;2.17;1.20;;;;;;;19.21;56.82;100801.13;5118782;28;20182;-63
2023/01/07 00:17:05;;;;;;;3.20;1.30;;;;;;;19.20;56.84;100795.75;5123692;28;20166;-63
2023/01/07 00:19:31;;;;;;;2.07;1.20;;;;;;;19.21;56.76;100801.13;5120155;28;20182;-63
2023/01/07 00:21:56;;;;;;;2.90;1.27;;;;;;;19.23;56.77;100793.03;5123795;28;20199;-63
2023/01/07 00:24:22;;;;;;;2.33;1.30;;;;;;;19.21;56.74;100786.00;5121770;28;20538;-63
2023/01/07 00:26:47;;;;;;;3.00;1.27;;;;;;;19.24;56.80;100788.97;5120720;28;20173;-63
2023/01/07 00:29:13;;;;;;;2.03;1.13;;;;;;;19.24;56.64;100776.69;5124078;28;20212;-63
2023/01/07 00:31:39;;;;;;;2.90;1.30;;;;;;;19.20;56.86;100779.44;5124007;28;20239;-63
2023/01/07 00:36:45;;;;;;;1.83;1.03;;;;;;;19.20;56.67;100782.28;5102121;28;20421;-63
2023/01/07 00:39:16;;;;;;;3.00;1.50;;;;;;;19.23;56.87;100777.88;5089513;28;20212;-63
2023/01/07 00:42:53;;;;;;;3.07;1.30;;;;;;;19.20;56.86;100779.44;5103619;28;20405;-63
2023/01/07 00:44:29;;;;;;;2.67;1.27;;;;;;;19.20;56.75;100767.97;5038056;28;20934;-63
2023/01/07 00:46:55;;;;;;;2.10;1.13;;;;;;;19.20;56.18;100770.84;4997814;28;20487;-63
2023/01/07 00:49:23;;;;;;;2.07;1.00;;;;;;;19.24;56.73;100766.06;5001543;28;20174;-63
2023/01/07 00:51:49;;;;;;;1.87;1.10;;;;;;;19.24;56.69;100760.34;5003285;28;20587;-63
2023/01/07 00:54:15;;;;;;;2.83;1.47;;;;;;;19.23;56.66;100758.69;5001111;28;20401;-63
2023/01/07 00:56:40;;;;;;;3.17;1.30;;;;;;;19.19;56.82;100766.34;4999351;28;20174;-63
2023/01/07 00:59:06;;;;;;;3.97;1.23;;;;;;;19.23;56.76;100758.69;5002364;28;20204;-63
2023/01/07 01:01:31;;;;;;;2.70;1.73;;;;;;;19.21;56.60;100748.78;5066129;28;20170;-63
2023/01/07 01:03:57;;;;;;;2.90;1.37;;;;;;;19.18;56.84;100750.38;5017105;28;20548;-63
2023/01/07 01:06:22;;;;;;;4.33;1.27;;;;;;;19.19;56.75;100749.16;5000579;28;20185;-63
2023/01/07 01:08:47;;;;;;;3.27;1.47;;;;;;;19.18;56.86;100750.38;5000852;28;20186;-63
2023/01/07 01:11:14;;;;;;;2.37;1.17;;;;;;;19.19;56.85;100746.28;5002025;28;20198;-63
2023/01/07 01:13:39;;;;;;;2.57;1.20;;;;;;;19.24;56.96;100748.91;4999973;28;20198;-63
2023/01/07 01:16:09;;;;;;;2.53;1.20;;;;;;;19.22;56.91;100751.28;5001998;28;20433;-63
2023/01/07 01:18:35;;;;;;;2.80;1.43;;;;;;;19.21;56.86;100748.78;5001421;28;20186;-63
2023/01/07 01:21:05;;;;;;;2.13;1.10;;;;;;;19.18;56.82;100744.63;4999889;28;20424;-63
2023/01/07 01:23:30;;;;;;;2.40;1.20;;;;;;;19.20;56.44;100755.69;5015340;28;20432;-63
2023/01/07 01:26:06;;;;;;;2.00;1.10;;;;;;;19.19;56.82;100746.28;5019639;28;20460;-63
2023/01/07 01:28:32;;;;;;;2.10;1.07;;;;;;;19.19;56.65;100740.56;5083286;28;20267;-63
2023/01/07 01:30:58;;;;;;;3.57;1.60;;;;;;;19.14;56.85;100743.72;5018746;28;20456;-63
2023/01/07 01:33:23;;;;;;;2.43;1.40;;;;;;;19.22;56.73;100748.41;5016720;28;20440;-63
2023/01/07 01:35:49;;;;;;;3.40;1.67;;;;;;;19.18;56.79;100743.78;5013309;28;20189;-63
2023/01/07 01:38:14;;;;;;;4.10;1.40;;;;;;;19.16;57.12;100749.09;4998423;28;20182;-63
2023/01/07 01:40:39;;;;;;;2.70;1.30;;;;;;;19.19;56.90;100746.28;5007348;28;20201;-63
2023/01/07 01:43:32;;;;;;;3.20;1.50;;;;;;;19.15;57.09;100751.09;5019805;28;20225;-63
2023/01/07 01:46:00;;;;;;;2.53;1.10;;;;;;;19.17;56.83;100742.97;5085502;28;20178;-63
2023/01/07 01:48:27;;;;;;;2.33;1.50;;;;;;;19.18;56.80;100738.91;5086562;28;20443;-63
2023/01/07 01:50:52;;;;;;;1.87;0.83;;;;;;;19.16;56.82;100744.16;5101444;28;20428;-63
2023/01/07 01:53:23;;;;;;;3.50;1.20;;;;;;;19.17;56.75;100737.22;5101991;28;20436;-63
2023/01/07 01:55:52;;;;;;;4.83;1.20;;;;;;;19.15;56.81;100738.81;5066593;28;20196;-63
2023/01/07 01:58:33;;;;;;;2.60;1.40;;;;;;;19.18;56.67;100736.06;5086973;28;20432;-63
2023/01/07 02:00:58;;;;;;;2.93;1.27;;;;;;;19.18;57.00;100730.31;5098871;28;20903;-61
2023/01/07 02:03:24;;;;;;;2.40;1.17;;;;;;;19.19;57.13;100736.88;5080738;28;20500;-61
2023/01/07 02:05:50;;;;;;;2.40;1.20;;;;;;;19.14;56.88;100734.28;5059123;28;20214;-61
2023/01/07 02:08:20;;;;;;;2.47;1.20;;;;;;;19.16;56.96;100727.00;5081314;28;20440;-61
2023/01/07 02:10:47;;;;;;;2.13;1.23;;;;;;;19.15;56.94;100730.22;5093042;28;20175;-60
2023/01/07 02:13:28;;;;;;;1.90;0.83;;;;;;;19.15;56.95;100728.19;5039253;28;20947;-61
2023/01/07 02:16:02;;;;;;;2.77;1.20;;;;;;;19.18;56.72;100724.59;5051798;28;20419;-60
2023/01/07 02:18:46;;;;;;;2.90;1.27;;;;;;;19.19;56.77;100720.53;5096374;28;21312;-61
2023/01/07 02:21:39;;;;;;;2.40;1.00;;;;;;;19.16;56.87;100712.69;5071302;28;20785;-61
2023/01/07 02:24:10;;;;;;;3.23;1.20;;;;;;;19.17;56.67;100711.47;5079837;28;21010;-61
2023/01/07 02:26:44;;;;;;;2.40;1.30;;;;;;;19.17;57.04;100714.34;5073259;28;20421;-61
2023/01/07 02:29:28;;;;;;;2.17;1.13;;;;;;;19.13;56.85;100707.72;5052896;28;20423;-61
2023/01/07 02:32:18;;;;;;;3.17;1.43;;;;;;;19.16;56.67;100704.09;5073737;28;20465;-62
2023/01/07 02:34:56;;;;;;;2.17;1.27;;;;;;;19.14;56.85;100709.38;5054904;28;20520;-61
2023/01/07 02:37:45;;;;;;;3.63;1.40;;;;;;;19.16;56.91;100701.22;5078880;28;20441;-61
2023/01/07 02:40:49;;;;;;;1.80;1.10;;;;;;;19.15;56.79;100693.84;5088100;28;20858;-61
2023/01/07 02:43:24;;;;;;;1.97;1.20;;;;;;;19.14;56.74;100692.22;5067811;28;20500;-61
2023/01/07 02:46:02;;;;;;;2.70;1.03;;;;;;;19.15;56.88;100691.00;5070512;28;20787;-61
2023/01/07 02:48:27;;;;;;;2.80;1.20;;;;;;;19.11;56.84;100690.09;5089040;28;20426;-61
2023/01/07 02:50:52;;;;;;;2.17;1.30;;;;;;;19.16;56.72;100683.25;5043115;28;20444;-61
2023/01/07 02:53:18;;;;;;;2.57;1.20;;;;;;;19.13;56.76;100684.00;5110986;28;20196;-61
2023/01/07 02:56:00;;;;;;;5.40;1.20;;;;;;;19.14;56.77;100669.31;5094018;28;20174;-61
2023/01/07 02:58:51;;;;;;;3.80;1.30;;;;;;;19.08;56.84;100670.81;5089897;28;20185;-61
2023/01/07 03:01:20;;;;;;;3.77;1.50;;;;;;;19.12;56.84;100663.13;5070363;28;20427;-61
2023/01/07 03:04:03;;;;;;;1.97;1.07;;;;;;;19.11;56.93;100667.19;5097204;28;20408;-61
2023/01/07 03:06:47;;;;;;;2.80;1.00;;;;;;;19.10;56.98;100671.25;5093972;28;20432;-61
2023/01/07 03:09:18;;;;;;;4.13;1.40;;;;;;;19.10;56.97;100662.69;5093856;28;20756;-61
2023/01/07 03:12:11;;;;;;;2.07;1.03;;;;;;;19.12;56.97;100656.59;5091819;28;20415;-61
2023/01/07 03:14:50;;;;;;;3.20;1.20;;;;;;;19.13;56.87;100649.66;5094324;28;20428;-61
2023/01/07 03:17:20;;;;;;;2.70;1.73;;;;;;;19.11;56.85;100650.00;5094655;28;20757;-61
2023/01/07 03:19:51;;;;;;;2.90;1.30;;;;;;;19.11;56.77;100650.00;5078843;28;20423;-61
2023/01/07 03:22:17;;;;;;;3.80;1.50;;;;;;;19.07;57.04;100645.44;5076051;28;20470;-61
2023/01/07 03:24:42;;;;;;;2.10;1.23;;;;;;;19.09;56.99;100649.56;5076354;28;20741;-61
2023/01/07 03:27:08;;;;;;;1.90;1.07;;;;;;;19.08;57.04;100645.06;5088081;28;20173;-61
2023/01/07 03:29:34;;;;;;;1.77;1.00;;;;;;;19.09;56.97;100640.16;5115049;28;20633;-61
2023/01/07 03:32:16;;;;;;;3.50;1.27;;;;;;;19.11;56.71;100638.56;5109661;28;20201;-61
2023/01/07 03:34:42;;;;;;;2.30;1.20;;;;;;;19.11;56.98;100638.56;5094751;28;20408;-61
2023/01/07 03:37:15;;;;;;;4.73;1.10;;;;;;;19.09;56.90;100632.41;5075958;28;20420;-61
2023/01/07 03:39:41;;;;;;;2.40;1.30;;;;;;;19.08;56.87;100636.47;5059334;28;20221;-61
2023/01/07 03:44:51;;;;;;;2.60;1.07;;;;;;;19.07;57.14;100622.53;5114211;28;20275;-61
2023/01/07 03:47:16;;;;;;;2.20;1.30;;;;;;;19.09;56.80;100620.13;5106393;28;20436;-61
2023/01/07 03:49:42;;;;;;;2.43;1.03;;;;;;;19.08;56.84;100621.34;5094480;28;20586;-61
2023/01/07 03:52:07;;;;;;;2.13;0.90;;;;;;;19.08;56.88;100621.34;5094424;28;20202;-61
2023/01/07 03:54:33;;;;;;;2.07;1.07;;;;;;;19.09;56.72;100623.81;5096661;28;20178;-61
2023/01/07 03:56:58;;;;;;;2.60;1.10;;;;;;;19.10;56.63;100618.91;5093899;28;20166;-61
2023/01/07 03:59:24;;;;;;;1.93;1.03;;;;;;;19.06;56.84;100610.25;5095866;28;20211;-61
2023/01/07 04:01:49;;;;;;;2.97;1.10;;;;;;;19.07;56.89;100611.09;5093544;28;20599;-61
2023/01/07 04:04:14;;;;;;;2.20;1.20;;;;;;;19.08;56.64;100599.28;5093698;28;20673;-61
2023/01/07 04:06:40;;;;;;;2.27;1.07;;;;;;;19.09;57.08;100605.81;5093882;28;20689;-60
2023/01/07 04:09:05;;;;;;;2.40;1.23;;;;;;;19.05;56.92;100605.75;5103990;28;20189;-61
2023/01/07 04:11:31;;;;;;;1.90;1.07;;;;;;;19.06;56.83;100604.53;5114402;28;20174;-61
2023/01/07 04:13:59;;;;;;;2.37;1.23;;;;;;;19.08;56.81;100595.56;5109451;28;20238;-60
2023/01/07 04:16:25;;;;;;;3.37;1.50;;;;;;;19.09;56.82;100592.34;5094447;28;20246;-60
2023/01/07 04:18:50;;;;;;;2.63;1.23;;;;;;;19.07;57.12;100594.72;5094141;28;20451;-61
2023/01/07 04:21:16;;;;;;;1.90;1.00;;;;;;;19.08;56.89;100590.69;5096252;28;20864;-61
2023/01/07 04:23:41;;;;;;;2.17;1.20;;;;;;;19.08;56.72;100590.69;5094134;28;20155;-61
2023/01/07 04:26:07;;;;;;;2.47;1.30;;;;;;;19.04;56.89;100588.94;5096545;28;20178;-61
2023/01/07 04:28:32;;;;;;;2.50;1.10;;;;;;;19.05;56.98;100580.00;5093208;28;20163;-61
2023/01/07 04:30:58;;;;;;;2.40;1.37;;;;;;;19.06;56.84;100584.50;5094087;28;20158;-61
2023/01/07 04:33:23;;;;;;;2.03;0.90;;;;;;;19.04;56.82;100577.50;5095617;28;20259;-61
2023/01/07 04:35:49;;;;;;;1.93;1.00;;;;;;;19.04;56.65;100578.34;5093884;28;20396;-61
2023/01/07 04:38:14;;;;;;;2.73;1.30;;;;;;;19.05;56.71;100582.00;5100394;28;20517;-61
2023/01/07 04:40:40;;;;;;;1.90;1.10;;;;;;;19.04;56.83;100575.47;5097922;28;20174;-61
2023/01/07 04:43:05;;;;;;;2.27;1.10;;;;;;;19.04;56.87;100572.63;5096874;28;20170;-61
2023/01/07 04:45:31;;;;;;;2.23;1.00;;;;;;;19.07;56.81;100571.03;5112785;28;20177;-61
2023/01/07 04:47:56;;;;;;;4.10;1.40;;;;;;;19.06;56.96;100569.38;5112686;28;20218;-61
2023/01/07 04:50:22;;;;;;;2.93;1.27;;;;;;;19.03;56.91;100564.41;5108628;28;20181;-61
2023/01/07 04:52:47;;;;;;;1.90;1.00;;;;;;;19.04;56.78;100558.31;5111763;28;20648;-61
2023/01/07 04:55:13;;;;;;;2.40;1.07;;;;;;;19.04;56.89;100560.31;5108803;28;20185;-61
2023/01/07 04:57:38;;;;;;;3.60;1.47;;;;;;;19.06;56.66;100558.75;5112826;28;20157;-60
2023/01/07 05:00:04;;;;;;;2.33;1.10;;;;;;;19.05;56.82;100557.09;5113922;28;20173;-61
2023/01/07 05:02:30;;;;;;;1.70;0.93;;;;;;;19.06;56.93;100552.22;5095130;28;20183;-60
2023/01/07 05:04:56;;;;;;;3.00;1.20;;;;;;;19.06;56.71;100555.06;5075155;28;20452;-61
2023/01/07 05:07:21;;;;;;;1.93;0.90;;;;;;;19.07;56.74;100554.66;5092059;28;20231;-61
2023/01/07 05:09:47;;;;;;;2.30;1.30;;;;;;;19.07;56.84;100548.94;5093584;28;20182;-61
2023/01/07 05:12:12;;;;;;;2.23;1.07;;;;;;;19.07;56.84;100548.13;5113211;28;20194;-61
2023/01/07 05:14:37;;;;;;;2.30;1.20;;;;;;;19.06;56.96;100538.72;5113854;28;20743;-61
2023/01/07 05:17:03;;;;;;;2.60;1.20;;;;;;;19.06;56.74;100540.75;5113649;28;20248;-61
2023/01/07 05:19:28;;;;;;;6.53;1.20;;;;;;;19.07;56.78;100537.50;5109476;28;20189;-61
2023/01/07 05:21:54;;;;;;;3.83;1.43;;;;;;;19.06;56.62;100535.03;5113565;28;20165;-61
2023/01/07 05:24:19;;;;;;;1.87;0.93;;;;;;;19.05;56.73;100528.47;5110613;28;20174;-61
2023/01/07 05:26:44;;;;;;;2.50;1.10;;;;;;;19.08;56.74;100533.47;5111176;28;20193;-60
2023/01/07 05:29:10;;;;;;;1.90;0.90;;;;;;;19.06;56.77;100523.59;5113402;28;20170;-61
2023/01/07 05:31:35;;;;;;;2.30;1.10;;;;;;;19.08;56.57;100536.31;5113147;28;20178;-60
2023/01/07 05:34:01;;;;;;;4.03;1.50;;;;;;;19.06;56.74;100518.69;5090955;28;20181;-61
2023/01/07 05:36:26;;;;;;;2.30;1.20;;;;;;;19.05;56.71;100517.03;5113670;28;20169;-61
2023/01/07 05:38:52;;;;;;;2.40;1.07;;;;;;;19.06;56.94;100521.53;5100259;28;20179;-61
2023/01/07 05:41:17;;;;;;;1.70;0.93;;;;;;;19.06;56.73;100518.69;5093593;28;20170;-61
2023/01/07 05:43:43;;;;;;;1.90;1.10;;;;;;;19.09;56.67;100517.09;5094485;28;20271;-61
2023/01/07 05:46:08;;;;;;;2.70;1.13;;;;;;;19.08;56.55;100519.16;5093723;28;20171;-61
2023/01/07 05:48:33;;;;;;;4.60;1.20;;;;;;;19.06;56.81;100512.16;5093703;28;20167;-61
2023/01/07 05:50:59;;;;;;;2.73;1.10;;;;;;;19.03;56.93;100505.16;5095239;28;20178;-60
2023/01/07 05:53:24;;;;;;;2.33;1.13;;;;;;;19.05;56.65;100505.59;5113443;28;20206;-61
2023/01/07 05:55:57;;;;;;;1.80;1.00;;;;;;;19.05;56.56;100507.59;5112888;28;20638;-61
2023/01/07 05:58:22;;;;;;;1.90;1.10;;;;;;;19.11;56.49;100498.34;5113034;28;20170;-61
2023/01/07 06:00:47;;;;;;;2.40;1.10;;;;;;;19.07;56.67;100503.16;5090131;28;20924;-61
2023/01/07 06:03:13;;;;;;;3.80;1.10;;;;;;;19.07;56.65;100499.50;5093614;28;20170;-61
2023/01/07 06:05:38;;;;;;;2.63;1.03;;;;;;;19.08;56.50;100504.84;5092722;28;20206;-61
2023/01/07 06:08:04;;;;;;;2.77;1.23;;;;;;;19.07;56.74;100496.63;5106750;28;20186;-61
2023/01/07 06:10:30;;;;;;;2.50;1.00;;;;;;;19.08;56.52;100501.97;5092164;28;20624;-61
2023/01/07 06:12:55;;;;;;;1.60;0.93;;;;;;;19.08;56.70;100501.13;5094577;28;20722;-60
2023/01/07 06:15:20;;;;;;;2.07;1.30;;;;;;;19.08;56.81;100501.97;5091981;28;20179;-61
2023/01/07 06:17:46;;;;;;;2.20;1.20;;;;;;;19.05;56.76;100499.88;5094834;28;20181;-61
2023/01/07 06:20:13;;;;;;;2.30;1.00;;;;;;;19.07;56.51;100491.72;5108070;28;20231;-61
2023/01/07 06:22:39;;;;;;;2.90;1.20;;;;;;;19.09;56.49;100491.34;5112670;28;20199;-61
2023/01/07 06:25:05;;;;;;;3.53;1.10;;;;;;;19.09;56.73;100489.31;5094440;28;20416;-61
2023/01/07 06:27:30;;;;;;;2.27;1.20;;;;;;;19.10;56.58;100493.84;5094147;28;20285;-61
2023/01/07 06:29:56;;;;;;;2.90;1.17;;;;;;;19.07;56.62;100486.00;5091979;28;20183;-60
2023/01/07 06:32:21;;;;;;;2.37;1.20;;;;;;;19.07;56.59;100494.56;5097940;28;20707;-61
2023/01/07 06:34:46;;;;;;;4.03;1.17;;;;;;;19.07;56.66;100494.56;5112422;28;20528;-61
2023/01/07 06:37:13;;;;;;;3.20;1.47;;;;;;;19.07;56.71;100494.56;5080253;28;20174;-61
2023/01/07 06:39:39;;;;;;;3.50;1.20;;;;;;;19.08;56.67;100483.97;5109702;28;20178;-61
2023/01/07 06:42:04;;;;;;;2.30;1.20;;;;;;;19.07;56.59;100480.28;5112491;28;20400;-61
2023/01/07 06:44:30;;;;;;;2.30;1.00;;;;;;;19.09;56.66;100472.16;5111990;28;20552;-61
2023/01/07 06:46:55;;;;;;;2.20;1.10;;;;;;;19.07;56.80;100465.16;5089635;28;20185;-61
2023/01/07 06:49:20;;;;;;;1.90;0.87;;;;;;;19.05;56.56;100465.53;5112085;28;20187;-61
2023/01/07 06:51:46;;;;;;;2.33;1.10;;;;;;;19.07;56.61;100459.44;5115326;28;20170;-61
2023/01/07 06:54:11;;;;;;;1.80;0.90;;;;;;;19.08;56.71;100459.06;5111716;28;20188;-61
2023/01/07 06:56:37;;;;;;;2.03;1.00;;;;;;;19.09;56.61;100460.69;5102940;28;20235;-60
2023/01/07 06:59:02;;;;;;;2.70;1.10;;;;;;;19.08;56.64;100456.19;5102987;28;20178;-60
2023/01/07 07:01:27;;;;;;;2.43;1.20;;;;;;;19.10;56.65;100464.38;5097817;28;20158;-61
2023/01/07 07:03:53;;;;;;;2.20;1.10;;;;;;;19.09;56.63;100459.88;5096860;28;20175;-60
2023/01/07 07:06:18;;;;;;;2.47;1.07;;;;;;;19.08;56.63;100461.91;5075426;28;20577;-61
2023/01/07 07:08:44;;;;;;;1.87;0.97;;;;;;;19.08;56.57;100463.94;5095379;28;20196;-61
2023/01/07 07:11:09;;;;;;;1.90;1.00;;;;;;;19.08;56.55;100464.78;5115782;28;20158;-61
2023/01/07 07:13:35;;;;;;;2.10;1.20;;;;;;;19.06;56.59;100461.44;5112173;28;20523;-61
2023/01/07 07:16:00;;;;;;;1.90;1.00;;;;;;;19.08;56.51;100464.78;5115274;28;20260;-60
2023/01/07 07:18:26;;;;;;;4.60;1.30;;;;;;;19.10;56.46;100455.78;5115862;28;20203;-61
2023/01/07 07:20:51;;;;;;;2.47;1.20;;;;;;;19.07;56.75;100453.72;5115661;28;20169;-61
2023/01/07 07:23:17;;;;;;;2.20;1.13;;;;;;;19.10;56.48;100453.75;5111531;28;20390;-61
2023/01/07 07:25:42;;;;;;;2.00;1.10;;;;;;;19.10;56.60;100450.06;5115737;28;20176;-60
2023/01/07 07:28:08;;;;;;;2.37;1.20;;;;;;;19.12;56.64;100454.19;5114772;28;20158;-61
2023/01/07 07:30:33;;;;;;;2.00;0.93;;;;;;;19.08;56.51;100452.50;5083315;28;20179;-61
2023/01/07 07:33:02;;;;;;;2.10;1.00;;;;;;;19.10;56.57;100453.75;5075000;28;20187;-61
2023/01/07 07:35:28;;;;;;;2.00;1.00;;;;;;;19.09;56.71;100446.41;5093023;28;20186;-61
2023/01/07 07:37:54;;;;;;;2.00;1.10;;;;;;;19.11;56.42;100449.69;5111478;28;20431;-60
2023/01/07 07:40:19;;;;;;;2.40;1.00;;;;;;;19.08;56.53;100444.75;5094934;28;20166;-61
2023/01/07 07:42:45;;;;;;;1.80;1.10;;;;;;;19.08;56.95;100443.91;5112858;28;20649;-61
2023/01/07 07:45:14;;;;;;;2.03;0.90;;;;;;;19.07;56.55;100443.06;5115033;28;20305;-61
2023/01/07 07:47:40;;;;;;;2.17;1.03;;;;;;;19.09;56.31;100440.66;5111039;28;20436;-61
2023/01/07 07:50:06;;;;;;;2.77;1.23;;;;;;;19.08;56.42;100436.16;5115107;28;20423;-61
2023/01/07 07:52:31;;;;;;;1.70;0.83;;;;;;;19.12;56.41;100430.50;5111783;28;20194;-60
2023/01/07 07:54:57;;;;;;;1.93;1.10;;;;;;;19.09;56.39;100434.09;5097359;28;20186;-60
2023/01/07 07:57:22;;;;;;;1.80;1.00;;;;;;;19.09;56.46;100431.25;5091876;28;20488;-61
2023/01/07 07:59:48;;;;;;;2.23;0.97;;;;;;;19.09;56.61;100432.09;5092450;28;20163;-61
2023/01/07 08:02:13;;;;;;;3.40;1.10;;;;;;;19.08;56.51;100421.84;5092816;28;20178;-60
2023/01/07 08:04:39;;;;;;;1.60;0.90;;;;;;;19.09;56.55;100420.63;5076078;28;20199;-61
2023/01/07 08:07:04;;;;;;;1.70;0.90;;;;;;;19.08;56.64;100415.28;5074119;28;20155;-61
2023/01/07 08:09:29;;;;;;;2.43;1.20;;;;;;;19.10;56.43;100419.44;5110652;28;20194;-61
2023/01/07 08:11:55;;;;;;;1.70;0.90;;;;;;;19.13;56.43;100418.69;5114481;28;20250;-61
2023/01/07 08:14:20;;;;;;;2.63;1.03;;;;;;;19.12;56.73;100414.13;5114950;28;20181;-61
2023/01/07 08:16:46;;;;;;;1.80;0.90;;;;;;;19.09;56.59;100411.22;5111794;28;20190;-61
2023/01/07 08:19:11;;;;;;;3.30;1.17;;;;;;;19.08;56.68;100401.81;5113671;28;20189;-60
2023/01/07 08:21:37;;;;;;;1.50;0.90;;;;;;;19.10;56.36;100404.28;5114650;28;20165;-60
2023/01/07 08:24:02;;;;;;;1.77;0.80;;;;;;;19.08;56.49;100406.72;5114855;28;20505;-61
2023/01/07 08:26:28;;;;;;;1.50;0.83;;;;;;;19.10;56.57;100393.66;5109451;28;20201;-61
2023/01/07 08:28:53;;;;;;;1.83;0.90;;;;;;;19.11;56.31;100401.03;5110458;28;20193;-61
2023/01/07 08:31:19;;;;;;;2.57;1.30;;;;;;;19.10;56.33;100393.66;5114523;28;20613;-61
2023/01/07 08:33:44;;;;;;;1.50;0.80;;;;;;;19.10;56.45;100393.66;5106412;28;20208;-61
2023/01/07 08:36:10;;;;;;;1.90;0.90;;;;;;;19.10;56.59;100396.53;5114663;28;20187;-61
2023/01/07 08:38:35;;;;;;;2.00;1.10;;;;;;;19.12;56.48;100394.09;5104548;28;20183;-61
2023/01/07 08:41:01;;;;;;;2.20;1.20;;;;;;;19.10;56.55;100390.81;5094050;28;20179;-61
2023/01/07 08:43:26;;;;;;;2.00;0.90;;;;;;;19.14;56.80;100400.28;5097756;28;20209;-61
2023/01/07 08:45:51;;;;;;;3.00;1.30;;;;;;;19.13;56.45;100394.94;5093905;28;20167;-60
2023/01/07 08:48:17;;;;;;;2.30;1.00;;;;;;;19.11;56.66;100395.31;5099416;28;20185;-60
2023/01/07 08:50:42;;;;;;;1.70;0.80;;;;;;;19.09;56.48;100397.75;5112219;28;20576;-61
2023/01/07 08:53:08;;;;;;;3.37;1.27;;;;;;;19.10;56.49;100395.69;5113833;28;20202;-61
2023/01/07 08:55:33;;;;;;;1.97;0.90;;;;;;;19.14;56.46;100390.88;5096116;28;20182;-60
2023/01/07 08:57:59;;;;;;;1.90;0.90;;;;;;;19.10;56.36;100387.94;5093618;28;20167;-60
2023/01/07 09:00:24;;;;;;;1.77;1.23;;;;;;;19.10;56.66;100385.09;5098997;28;20191;-60
2023/01/07 09:02:50;;;;;;;2.23;1.23;;;;;;;19.14;56.31;100374.53;5109426;28;20185;-61
2023/01/07 09:05:15;;;;;;;2.27;1.17;;;;;;;19.11;56.46;100372.41;5073346;28;20210;-61
2023/01/07 09:07:41;;;;;;;2.33;1.10;;;;;;;19.14;56.52;100365.94;5088713;28;20193;-61
2023/01/07 09:10:07;;;;;;;1.70;0.80;;;;;;;19.10;56.46;100365.06;5093592;28;20682;-61
2023/01/07 09:12:32;;;;;;;2.93;0.90;;;;;;;19.08;56.41;100367.47;5059544;28;20262;-61
2023/01/07 09:14:58;;;;;;;4.40;1.07;;;;;;;19.08;56.51;100360.91;5113679;28;20415;-61
2023/01/07 09:17:23;;;;;;;3.07;1.73;;;;;;;18.93;56.52;100365.59;5105001;28;20186;-60
2023/01/07 09:19:49;;;;;;;3.90;3.10;;;;;;;18.90;55.85;100362.63;5111702;28;20158;-61
2023/01/07 09:22:14;;;;;;;4.70;2.63;;;;;;;18.92;54.48;100357.38;5111324;28;20200;-61
2023/01/07 09:24:39;;;;;;;5.90;3.03;;;;;;;18.92;55.42;100365.97;5113812;28;20165;-60
2023/01/07 09:27:05;;;;;;;4.20;3.27;;;;;;;18.85;55.10;100355.22;5112776;28;20645;-60
2023/01/07 09:29:30;;;;;;;5.40;2.97;;;;;;;18.99;55.15;100358.34;5109218;28;20179;-60
2023/01/07 09:31:56;;;;;;;18.33;4.20;;;;;;;19.25;54.29;100360.41;5113152;28;20169;-60
2023/01/07 09:34:21;;;;;;;13.23;3.97;;;;;;;19.22;53.12;100362.00;5081886;28;20634;-62
2023/01/07 09:36:46;;;;;;;7.20;3.53;;;;;;;19.21;53.79;100353.78;5094749;28;20190;-60
2023/01/07 09:39:12;;;;;;;12.37;3.17;;;;;;;19.45;54.71;100347.63;5077990;28;20186;-61
2023/01/07 09:41:43;;;;;;;9.47;3.00;;;;;;;19.52;54.71;100345.72;5087471;28;20229;-60
2023/01/07 09:44:18;;;;;;;10.30;3.90;;;;;;;19.50;53.99;100347.31;5092728;28;20226;-62
2023/01/07 09:46:44;;;;;;;11.17;4.63;;;;;;;19.52;53.29;100337.13;5076637;28;20445;-62
2023/01/07 09:49:16;;;;;;;11.13;5.00;;;;;;;19.58;53.17;100338.47;5074409;28;20409;-61
2023/01/07 09:51:43;;;;;;;12.80;6.40;;;;;;;19.54;57.80;100337.56;5073960;28;20178;-60
2023/01/07 09:54:35;;;;;;;18.80;6.50;;;;;;;19.50;51.82;100327.25;5074710;28;20460;-61
2023/01/07 09:57:01;;;;;;;10.40;5.67;;;;;;;19.40;51.35;100323.03;5099700;28;20435;-61
2023/01/07 09:59:26;;;;;;;7.67;5.20;;;;;;;19.52;51.06;100324.84;5111961;28;20519;-61
2023/01/07 10:02:26;;;;;;;7.40;4.70;;;;;;;19.64;51.24;100314.00;5088860;28;20182;-61
2023/01/07 10:05:13;;;;;;;9.30;4.90;;;;;;;19.65;52.05;100318.50;5073516;28;20198;-61
2023/01/07 10:07:40;;;;;;;11.80;4.50;;;;;;;19.81;51.56;100313.38;5073149;28;20427;-61
2023/01/07 10:10:22;;;;;;;9.10;4.60;;;;;;;19.75;51.90;100314.94;5112616;28;20426;-60
2023/01/07 10:13:14;;;;;;;10.10;4.30;;;;;;;19.74;55.11;100304.72;5095375;28;20440;-61
2023/01/07 10:15:58;;;;;;;9.57;4.90;;;;;;;19.75;57.80;100306.34;5112757;28;20927;-60
2023/01/07 10:18:36;;;;;;;17.80;11.57;;;;;;;19.72;58.56;100304.25;5108647;28;20441;-61
2023/01/07 10:21:37;;;;;;;26.30;16.87;;;;;;;19.72;59.72;100300.59;5093956;28;20917;-60
2023/01/07 10:24:07;;;;;;;25.27;17.17;;;;;;;19.67;60.15;100289.47;5040591;28;20534;-61
2023/01/07 10:26:40;;;;;;;34.83;21.57;;;;;;;19.69;60.74;100296.47;5097094;28;20513;-60
2023/01/07 10:29:13;;;;;;;34.87;22.57;;;;;;;19.63;61.15;100291.47;5073752;28;20404;-61
2023/01/07 10:31:38;;;;;;;31.40;21.13;;;;;;;19.58;60.25;100277.47;5074381;28;20425;-60
2023/01/07 10:34:18;;;;;;;31.40;22.13;;;;;;;19.43;58.81;100262.16;5091913;28;20458;-61
2023/01/07 10:37:05;;;;;;;30.90;17.03;;;;;;;19.43;53.76;100262.16;5077654;28;20651;-61
2023/01/07 10:39:46;;;;;;;20.93;13.23;;;;;;;19.51;54.04;100257.34;5093696;28;20443;-60
2023/01/07 10:42:39;;;;;;;15.80;9.43;;;;;;;19.53;57.09;100257.78;5091984;28;20887;-60
2023/01/07 10:45:21;;;;;;;11.07;7.53;;;;;;;19.59;57.84;100245.59;5091442;28;20989;-60
2023/01/07 10:47:53;;;;;;;11.03;7.07;;;;;;;19.64;57.63;100242.38;5094005;28;20440;-61
2023/01/07 10:50:41;;;;;;;9.60;6.07;;;;;;;19.77;55.85;100232.31;5073549;28;20416;-59
2023/01/07 10:53:30;;;;;;;11.03;7.10;;;;;;;19.85;56.85;100233.22;5094155;28;20596;-60
2023/01/07 10:56:17;;;;;;;11.33;7.70;;;;;;;19.84;58.84;100228.69;5087151;28;20399;-59
2023/01/07 10:58:44;;;;;;;14.97;8.77;;;;;;;19.77;57.11;100226.56;5096325;28;20396;-60
2023/01/07 11:01:17;;;;;;;13.23;6.63;;;;;;;19.72;54.44;100226.91;5098079;28;20790;-60
2023/01/07 11:03:42;;;;;;;7.40;5.43;;;;;;;19.73;52.73;100222.88;5065117;28;20431;-61
2023/01/07 11:06:10;;;;;;;9.00;5.23;;;;;;;19.76;50.88;100210.59;5091271;28;20436;-60
2023/01/07 11:08:37;;;;;;;9.23;5.07;;;;;;;19.64;50.21;100208.03;5073313;28;20179;-60
2023/01/07 11:11:03;;;;;;;7.90;4.70;;;;;;;19.59;50.69;100208.38;5105428;28;20908;-60
2023/01/07 11:13:30;;;;;;;10.80;4.70;;;;;;;19.56;50.97;100206.28;5093323;28;20480;-60
2023/01/07 11:16:06;;;;;;;8.60;4.10;;;;;;;19.43;50.81;100207.75;5093028;28;20207;-60
2023/01/07 11:18:35;;;;;;;8.83;4.57;;;;;;;19.38;50.51;100205.25;5091410;28;20431;-60
2023/01/07 11:21:00;;;;;;;9.07;4.30;;;;;;;19.38;50.59;100201.53;5093153;28;20424;-60
2023/01/07 11:23:33;;;;;;;8.83;4.17;;;;;;;19.34;50.32;100194.94;5111439;28;20464;-60
2023/01/07 11:26:10;;;;;;;23.27;4.70;;;;;;;19.36;50.54;100187.59;5111325;28;20233;-61
2023/01/07 11:28:36;;;;;;;8.77;3.83;;;;;;;19.37;50.97;100182.72;5095684;28;20841;-60
2023/01/07 11:31:02;;;;;;;7.30;3.87;;;;;;;19.41;50.94;100186.47;5093526;28;20407;-60
2023/01/07 11:33:36;;;;;;;6.27;4.37;;;;;;;19.40;51.14;100168.44;5111648;28;20185;-60
2023/01/07 11:36:01;;;;;;;10.87;4.00;;;;;;;19.43;51.71;100166.84;5077334;28;20156;-59